createdAt,value
2022-12-11T00:01:20.540Z,96638.56
2022-12-11T00:03:48.651Z,96617.41
2022-12-11T00:06:18.364Z,96628.56
2022-12-11T00:08:45.740Z,96632.63
2022-12-11T00:11:14.859Z,96618.25
2022-12-11T00:13:42.210Z,96604.38
2022-12-11T00:16:09.672Z,96605.50
2022-12-11T00:18:37.149Z,96612.41
2022-12-11T00:21:05.990Z,96607.78
2022-12-11T00:23:34.733Z,96613.34
2022-12-11T00:26:07.004Z,96630.50
2022-12-11T00:28:34.056Z,96621.00
2022-12-11T00:31:09.992Z,96600.19
2022-12-11T00:33:37.150Z,96612.31
2022-12-11T00:36:04.744Z,96620.44
2022-12-11T00:38:31.762Z,96616.50
2022-12-11T00:41:01.604Z,96612.16
2022-12-11T00:43:28.863Z,96612.72
2022-12-11T00:45:55.930Z,96625.63
2022-12-11T00:48:22.969Z,96628.47
2022-12-11T00:50:50.473Z,96635.41
2022-12-11T00:53:17.458Z,96626.03
2022-12-11T00:55:44.452Z,96644.38
2022-12-11T00:58:12.444Z,96641.22
2022-12-11T01:00:40.585Z,96641.13
2022-12-11T01:03:08.028Z,96659.88
2022-12-11T01:05:35.579Z,96644.34
2022-12-11T01:08:02.906Z,96636.34
2022-12-11T01:10:30.057Z,96634.56
2022-12-11T01:12:58.234Z,96641.91
2022-12-11T01:15:28.153Z,96640.47
2022-12-11T01:17:55.245Z,96641.19
2022-12-11T01:20:23.267Z,96660.59
2022-12-11T01:22:55.102Z,96646.72
2022-12-11T01:25:22.633Z,96654.87
2022-12-11T01:27:53.366Z,96662.91
2022-12-11T01:30:22.362Z,96672.63
2022-12-11T01:32:49.832Z,96661.81
2022-12-11T01:35:17.617Z,96645.31
2022-12-11T01:37:45.351Z,96658.12
2022-12-11T01:40:18.419Z,96663.56
2022-12-11T01:42:45.660Z,96651.97
2022-12-11T01:45:24.718Z,96661.84
2022-12-11T01:48:01.263Z,96664.00
2022-12-11T01:50:29.703Z,96665.94
2022-12-11T01:52:56.807Z,96676.38
2022-12-11T01:55:23.865Z,96672.94
2022-12-11T01:57:51.479Z,96674.91
2022-12-11T02:00:19.441Z,96664.00
2022-12-11T02:02:46.959Z,96674.06
2022-12-11T02:05:14.664Z,96663.50
2022-12-11T02:07:45.891Z,96661.44
2022-12-11T02:10:13.314Z,96647.87
2022-12-11T02:12:54.565Z,96635.91
2022-12-11T02:15:34.611Z,96640.88
2022-12-11T02:18:20.823Z,96653.41
2022-12-11T02:21:08.693Z,96654.50
2022-12-11T02:23:38.796Z,96641.31
2022-12-11T02:26:36.739Z,96644.41
2022-12-11T02:29:09.536Z,96651.94
2022-12-11T02:31:38.326Z,96641.13
2022-12-11T02:34:29.336Z,96634.84
2022-12-11T02:36:59.489Z,96625.88
2022-12-11T02:39:27.774Z,96621.28
2022-12-11T02:41:55.409Z,96618.53
2022-12-11T02:44:28.276Z,96627.75
2022-12-11T02:46:55.977Z,96639.28
2022-12-11T02:49:23.396Z,96616.63
2022-12-11T02:51:51.183Z,96646.50
2022-12-11T02:54:22.607Z,96614.06
2022-12-11T02:57:07.758Z,96624.75
2022-12-11T02:59:44.055Z,96621.81
2022-12-11T03:02:12.802Z,96603.91
2022-12-11T03:04:41.088Z,96620.88
2022-12-11T03:07:14.715Z,96603.25
2022-12-11T03:09:44.524Z,96612.62
2022-12-11T03:12:17.432Z,96589.56
2022-12-11T03:14:44.967Z,96608.50
2022-12-11T03:17:19.507Z,96600.66
2022-12-11T03:19:56.315Z,96616.63
2022-12-11T03:22:34.434Z,96599.53
2022-12-11T03:25:08.028Z,96589.88
2022-12-11T03:27:45.528Z,96589.81
2022-12-11T03:30:21.773Z,96589.22
2022-12-11T03:32:57.083Z,96590.47
2022-12-11T03:35:45.752Z,96575.94
2022-12-11T03:38:24.930Z,96587.88
2022-12-11T03:40:55.327Z,96585.72
2022-12-11T03:43:22.949Z,96602.84
2022-12-11T03:45:52.217Z,96601.66
2022-12-11T03:48:20.979Z,96586.75
2022-12-11T03:50:48.933Z,96588.44
2022-12-11T03:53:16.918Z,96602.00
2022-12-11T03:55:45.274Z,96598.59
2022-12-11T03:58:12.267Z,96613.41
2022-12-11T04:00:39.646Z,96609.41
2022-12-11T04:03:13.846Z,96626.16
2022-12-11T04:05:51.355Z,96620.59
2022-12-11T04:08:20.718Z,96622.72
2022-12-11T04:10:48.212Z,96625.81
2022-12-11T04:13:15.207Z,96620.66
2022-12-11T04:15:42.545Z,96631.22
2022-12-11T04:18:29.187Z,96624.22
2022-12-11T04:21:15.088Z,96614.47
2022-12-11T04:24:00.322Z,96629.75
2022-12-11T04:26:27.669Z,96633.25
2022-12-11T04:28:54.940Z,96643.72
2022-12-11T04:31:22.755Z,96672.72
2022-12-11T04:33:50.305Z,96640.78
2022-12-11T04:36:17.730Z,96638.91
2022-12-11T04:38:44.707Z,96647.31
2022-12-11T04:41:14.233Z,96644.72
2022-12-11T04:43:41.333Z,96654.03
2022-12-11T04:46:20.177Z,96659.25
2022-12-11T04:48:51.187Z,96688.03
2022-12-11T04:51:19.865Z,96680.81
2022-12-11T04:53:46.901Z,96681.81
2022-12-11T04:56:15.641Z,96689.34
2022-12-11T04:58:43.732Z,96698.84
2022-12-11T05:01:12.654Z,96703.06
2022-12-11T05:03:40.542Z,96692.31
2022-12-11T05:06:08.304Z,96713.44
2022-12-11T05:08:36.593Z,96721.16
2022-12-11T05:11:06.192Z,96708.16
2022-12-11T05:13:33.456Z,96710.16
2022-12-11T05:16:00.599Z,96730.28
2022-12-11T05:18:27.886Z,96722.38
2022-12-11T05:21:01.872Z,96724.94
2022-12-11T05:23:29.706Z,96724.50
2022-12-11T05:26:10.726Z,96723.94
2022-12-11T05:28:38.952Z,96727.06
2022-12-11T05:31:08.729Z,96718.84
2022-12-11T05:33:36.005Z,96716.37
2022-12-11T05:36:03.901Z,96748.25
2022-12-11T05:38:31.023Z,96712.25
2022-12-11T05:41:01.537Z,96732.19
2022-12-11T05:43:30.471Z,96730.53
2022-12-11T05:46:08.831Z,96728.47
2022-12-11T05:48:36.913Z,96715.69
2022-12-11T05:51:04.644Z,96719.66
2022-12-11T05:53:31.852Z,96715.44
2022-12-11T05:56:04.298Z,96727.03
2022-12-11T05:58:31.948Z,96733.66
2022-12-11T06:01:00.024Z,96732.97
2022-12-11T06:03:27.676Z,96741.72
2022-12-11T06:05:54.793Z,96750.78
2022-12-11T06:08:21.955Z,96763.09
2022-12-11T06:10:49.970Z,96768.00
2022-12-11T06:13:17.555Z,96762.94
2022-12-11T06:15:44.572Z,96776.34
2022-12-11T06:18:11.926Z,96756.47
2022-12-11T06:20:39.039Z,96770.88
2022-12-11T06:23:06.027Z,96784.09
2022-12-11T06:25:33.573Z,96770.19
2022-12-11T06:28:00.581Z,96785.16
2022-12-11T06:30:38.448Z,96784.00
2022-12-11T06:33:06.928Z,96786.25
2022-12-11T06:35:40.075Z,96789.38
2022-12-11T06:38:10.696Z,96789.16
2022-12-11T06:40:38.248Z,96815.03
2022-12-11T06:43:05.395Z,96800.84
2022-12-11T06:45:32.779Z,96810.34
2022-12-11T06:47:59.967Z,96817.06
2022-12-11T06:50:27.003Z,96795.47
2022-12-11T06:52:56.159Z,96821.97
2022-12-11T06:55:23.149Z,96804.41
2022-12-11T06:57:50.129Z,96808.72
2022-12-11T07:00:17.456Z,96815.53
2022-12-11T07:02:44.417Z,96806.97
2022-12-11T07:05:11.656Z,96797.38
2022-12-11T07:07:39.140Z,96815.53
2022-12-11T07:10:08.555Z,96813.50
2022-12-11T07:12:36.362Z,96806.94
2022-12-11T07:15:06.924Z,96850.16
2022-12-11T07:17:33.901Z,96796.06
2022-12-11T07:20:00.884Z,96791.03
2022-12-11T07:22:29.143Z,96806.38
2022-12-11T07:24:56.119Z,96813.97
2022-12-11T07:27:23.371Z,96821.34
2022-12-11T07:29:51.433Z,96829.59
2022-12-11T07:32:18.487Z,96823.09
2022-12-11T07:34:51.421Z,96829.72
2022-12-11T07:37:19.200Z,96819.34
2022-12-11T07:39:46.171Z,96828.72
2022-12-11T07:42:13.123Z,96839.34
2022-12-11T07:44:40.476Z,96835.03
2022-12-11T07:47:07.467Z,96850.81
2022-12-11T07:49:34.467Z,96870.09
2022-12-11T07:52:01.754Z,96862.38
2022-12-11T07:54:28.745Z,96887.75
2022-12-11T07:56:56.073Z,96864.69
2022-12-11T07:59:23.421Z,96859.53
2022-12-11T08:01:50.407Z,96867.69
2022-12-11T08:04:17.752Z,96896.03
2022-12-11T08:06:44.779Z,96880.81
2022-12-11T08:09:20.747Z,96889.22
2022-12-11T08:11:50.570Z,96934.91
2022-12-11T08:14:18.439Z,96918.22
2022-12-11T08:16:45.498Z,96918.22
2022-12-11T08:19:13.277Z,96921.81
2022-12-11T08:21:40.455Z,96922.19
2022-12-11T08:24:08.867Z,96948.16
2022-12-11T08:26:36.244Z,96942.22
2022-12-11T08:29:03.539Z,96929.19
2022-12-11T08:31:33.505Z,96964.84
2022-12-11T08:34:00.994Z,96956.44
2022-12-11T08:36:28.110Z,96951.03
2022-12-11T08:38:56.360Z,96952.09
2022-12-11T08:41:26.689Z,96969.31
2022-12-11T08:43:55.290Z,96958.28
2022-12-11T08:46:24.546Z,96964.06
2022-12-11T08:48:52.453Z,96973.03
2022-12-11T08:51:24.321Z,96973.63
2022-12-11T08:53:52.007Z,96971.50
2022-12-11T08:56:20.385Z,97010.84
2022-12-11T08:58:47.665Z,96987.19
2022-12-11T09:01:26.300Z,96997.63
2022-12-11T09:03:55.104Z,96999.16
2022-12-11T09:06:24.446Z,96986.84
2022-12-11T09:08:53.422Z,97000.88
2022-12-11T09:11:23.354Z,96998.63
2022-12-11T09:13:50.669Z,97003.34
2022-12-11T09:16:19.501Z,97008.75
2022-12-11T09:18:48.529Z,97012.97
2022-12-11T09:21:18.277Z,96983.94
2022-12-11T09:23:45.792Z,97025.88
2022-12-11T09:26:15.498Z,97009.84
2022-12-11T09:28:46.765Z,97030.00
2022-12-11T09:31:15.438Z,97028.37
2022-12-11T09:33:43.296Z,97017.44
2022-12-11T09:36:10.828Z,97027.66
2022-12-11T09:38:38.105Z,97009.12
2022-12-11T09:41:30.035Z,97024.94
2022-12-11T09:44:12.698Z,97009.97
2022-12-11T09:46:40.846Z,97002.91
2022-12-11T09:49:34.904Z,97008.41
2022-12-11T09:52:19.306Z,96997.84
2022-12-11T09:54:51.384Z,96973.22
2022-12-11T09:57:21.095Z,97003.59
2022-12-11T10:00:09.733Z,96986.09
2022-12-11T10:03:01.713Z,96968.53
2022-12-11T10:05:31.504Z,96970.13
2022-12-11T10:08:13.469Z,96974.87
2022-12-11T10:11:11.068Z,96978.19
2022-12-11T10:13:41.257Z,97016.72
2022-12-11T10:16:29.640Z,97005.72
2022-12-11T10:18:58.481Z,97003.47
2022-12-11T10:21:26.615Z,96985.56
2022-12-11T10:24:00.497Z,96992.28
2022-12-11T10:26:29.321Z,97007.88
2022-12-11T10:29:00.760Z,97003.63
2022-12-11T10:31:30.845Z,97021.94
2022-12-11T10:34:01.308Z,97005.97
2022-12-11T10:36:32.206Z,97006.53
2022-12-11T10:38:59.371Z,97022.72
2022-12-11T10:41:40.494Z,97046.88
2022-12-11T10:44:26.839Z,97040.06
2022-12-11T10:47:06.069Z,97030.72
2022-12-11T10:49:35.382Z,97036.78
2022-12-11T10:52:13.082Z,97029.06
2022-12-11T10:54:42.640Z,97015.97
2022-12-11T10:57:11.564Z,97039.84
2022-12-11T10:59:49.662Z,97101.72
2022-12-11T11:02:29.859Z,97025.31
2022-12-11T11:04:58.830Z,97048.38
2022-12-11T11:07:30.940Z,97037.25
2022-12-11T11:10:27.524Z,97052.34
2022-12-11T11:13:01.657Z,97021.87
2022-12-11T11:15:30.450Z,97017.09
2022-12-11T11:18:02.920Z,97016.50
2022-12-11T11:20:31.552Z,97032.44
2022-12-11T11:23:01.280Z,97027.03
2022-12-11T11:25:30.228Z,97055.53
2022-12-11T11:28:05.155Z,97040.53
2022-12-11T11:30:32.344Z,97039.09
2022-12-11T11:33:05.098Z,97029.75
2022-12-11T11:35:32.745Z,97039.00
2022-12-11T11:38:11.581Z,97040.41
2022-12-11T11:40:44.921Z,97029.88
2022-12-11T11:43:29.193Z,97031.97
2022-12-11T11:46:04.142Z,97040.62
2022-12-11T11:48:37.612Z,97042.63
2022-12-11T11:51:25.082Z,97041.59
2022-12-11T11:53:54.668Z,97033.25
2022-12-11T11:56:35.041Z,97054.47
2022-12-11T11:59:21.367Z,97063.59
2022-12-11T12:01:48.691Z,97059.16
2022-12-11T12:04:16.161Z,97061.38
2022-12-11T12:07:08.320Z,97087.28
2022-12-11T12:10:11.113Z,97070.97
2022-12-11T12:12:49.443Z,97068.63
2022-12-11T12:15:37.936Z,97083.66
2022-12-11T12:18:15.064Z,97067.78
2022-12-11T12:20:51.040Z,97078.59
2022-12-11T12:23:47.096Z,97085.16
2022-12-11T12:26:23.264Z,97081.28
2022-12-11T12:29:05.349Z,97086.09
2022-12-11T12:32:00.297Z,97074.50
2022-12-11T12:34:53.143Z,97069.47
2022-12-11T12:37:40.138Z,97070.41
2022-12-11T12:40:45.718Z,97075.00
2022-12-11T12:43:22.080Z,97074.25
2022-12-11T12:45:54.298Z,97081.66
2022-12-11T12:48:22.795Z,97081.16
2022-12-11T12:50:50.950Z,97106.75
2022-12-11T12:53:20.907Z,97103.66
2022-12-11T12:55:48.683Z,97125.50
2022-12-11T12:58:31.633Z,97110.81
2022-12-11T13:01:26.001Z,97114.81
2022-12-11T13:04:08.633Z,97120.09
2022-12-11T13:06:41.076Z,97142.25
2022-12-11T13:09:21.968Z,97146.59
2022-12-11T13:11:53.714Z,97146.81
2022-12-11T13:14:24.252Z,97168.03
2022-12-11T13:16:52.638Z,97151.75
2022-12-11T13:19:25.593Z,97167.69
2022-12-11T13:22:10.962Z,97162.53
2022-12-11T13:24:52.009Z,97170.38
2022-12-11T13:27:41.792Z,97174.00
2022-12-11T13:30:23.198Z,97170.16
2022-12-11T13:33:08.098Z,97176.59
2022-12-11T13:35:35.314Z,97170.28
2022-12-11T13:38:13.153Z,97183.19
2022-12-11T13:40:42.529Z,97216.69
2022-12-11T13:43:20.019Z,97192.53
2022-12-11T13:45:55.884Z,97176.97
2022-12-11T13:48:28.043Z,97174.84
2022-12-11T13:50:56.154Z,97197.69
2022-12-11T13:53:23.639Z,97196.31
2022-12-11T13:56:14.938Z,97190.09
2022-12-11T13:58:42.218Z,97193.00
2022-12-11T14:01:11.950Z,97220.69
2022-12-11T14:03:41.499Z,97211.97
2022-12-11T14:06:18.209Z,97221.63
2022-12-11T14:08:49.265Z,97217.38
2022-12-11T14:11:27.953Z,97234.03
2022-12-11T14:14:00.280Z,97242.50
2022-12-11T14:16:27.894Z,97233.00
2022-12-11T14:18:59.920Z,97246.47
2022-12-11T14:21:26.941Z,97235.69
2022-12-11T14:23:56.254Z,97233.09
2022-12-11T14:26:32.157Z,97248.34
2022-12-11T14:28:59.186Z,97255.94
2022-12-11T14:31:26.473Z,97243.53
2022-12-11T14:34:20.244Z,97246.66
2022-12-11T14:36:48.144Z,97253.94
2022-12-11T14:39:44.797Z,97248.87
2022-12-11T14:42:19.128Z,97267.50
2022-12-11T14:44:50.759Z,97269.12
2022-12-11T14:47:27.815Z,97272.41
2022-12-11T14:50:08.420Z,97270.31
2022-12-11T14:52:42.483Z,97279.06
2022-12-11T14:55:15.948Z,97269.22
2022-12-11T14:57:45.987Z,97276.59
2022-12-11T15:00:24.411Z,97282.13
2022-12-11T15:03:24.560Z,97277.09
2022-12-11T15:05:54.100Z,97286.16
2022-12-11T15:08:30.296Z,97282.88
2022-12-11T15:11:04.710Z,97287.97
2022-12-11T15:13:33.484Z,97299.22
2022-12-11T15:16:00.683Z,97289.28
2022-12-11T15:18:31.413Z,97300.12
2022-12-11T15:21:09.472Z,97294.97
2022-12-11T15:23:45.617Z,97305.72
2022-12-11T15:26:12.998Z,97311.81
2022-12-11T15:28:40.200Z,97314.38
2022-12-11T15:31:23.835Z,97305.22
2022-12-11T15:33:51.575Z,97297.50
2022-12-11T15:36:31.962Z,97301.00
2022-12-11T15:38:59.563Z,97306.72
2022-12-11T15:41:26.743Z,97304.84
2022-12-11T15:43:58.565Z,97302.59
2022-12-11T15:46:26.690Z,97307.31
2022-12-11T15:48:53.770Z,97298.69
2022-12-11T15:51:20.757Z,97302.91
2022-12-11T15:53:48.059Z,97324.97
2022-12-11T15:56:16.377Z,97307.25
2022-12-11T15:58:44.774Z,97315.56
2022-12-11T16:01:12.338Z,97319.16
2022-12-11T16:03:39.681Z,97322.16
2022-12-11T16:06:06.806Z,97327.53
2022-12-11T16:08:33.831Z,97317.03
2022-12-11T16:11:01.191Z,97333.94
2022-12-11T16:13:28.231Z,97315.63
2022-12-11T16:15:55.387Z,97322.41
2022-12-11T16:18:26.481Z,97328.38
2022-12-11T16:20:53.533Z,97332.53
2022-12-11T16:23:21.037Z,97328.94
2022-12-11T16:25:48.958Z,97331.50
2022-12-11T16:28:18.111Z,97337.88
2022-12-11T16:30:45.548Z,97339.81
2022-12-11T16:33:13.785Z,97332.53
2022-12-11T16:35:42.778Z,97350.22
2022-12-11T16:38:11.150Z,97345.50
2022-12-11T16:40:38.488Z,97352.06
2022-12-11T16:43:05.793Z,97358.38
2022-12-11T16:45:33.139Z,97364.25
2022-12-11T16:48:04.255Z,97362.00
2022-12-11T16:50:32.315Z,97352.59
2022-12-11T16:52:59.524Z,97350.75
2022-12-11T16:55:26.878Z,97345.06
2022-12-11T16:57:54.447Z,97353.75
2022-12-11T17:00:21.455Z,97341.41
2022-12-11T17:02:49.048Z,97342.22
2022-12-11T17:05:16.195Z,97359.50
2022-12-11T17:07:43.273Z,97336.84
2022-12-11T17:10:10.902Z,97363.19
2022-12-11T17:12:38.969Z,97357.44
2022-12-11T17:15:06.723Z,97342.50
2022-12-11T17:17:34.111Z,97357.41
2022-12-11T17:20:01.108Z,97352.91
2022-12-11T17:22:28.091Z,97348.59
2022-12-11T17:24:55.368Z,97358.47
2022-12-11T17:27:22.986Z,97353.00
2022-12-11T17:29:50.796Z,97350.03
2022-12-11T17:32:18.536Z,97357.56
2022-12-11T17:34:48.160Z,97356.53
2022-12-11T17:37:15.168Z,97342.81
2022-12-11T17:39:42.694Z,97347.78
2022-12-11T17:42:09.722Z,97332.75
2022-12-11T17:44:38.865Z,97334.41
2022-12-11T17:47:10.777Z,97335.03
2022-12-11T17:49:39.495Z,97345.81
2022-12-11T17:52:07.080Z,97346.22
2022-12-11T17:54:34.955Z,97351.16
2022-12-11T17:57:02.726Z,97361.25
2022-12-11T17:59:30.030Z,97382.97
2022-12-11T18:01:57.658Z,97364.94
2022-12-11T18:04:25.436Z,97378.87
2022-12-11T18:06:52.447Z,97366.31
2022-12-11T18:09:19.447Z,97367.31
2022-12-11T18:11:49.705Z,97385.03
2022-12-11T18:14:17.532Z,97383.72
2022-12-11T18:16:44.823Z,97389.66
2022-12-11T18:19:14.117Z,97379.87
2022-12-11T18:21:43.036Z,97400.47
2022-12-11T18:24:10.279Z,97389.88
2022-12-11T18:26:37.662Z,97401.94
2022-12-11T18:29:04.811Z,97386.37
2022-12-11T18:31:31.833Z,97393.06
2022-12-11T18:33:59.341Z,97390.28
2022-12-11T18:36:26.682Z,97394.69
2022-12-11T18:38:53.815Z,97409.81
2022-12-11T18:41:21.191Z,97399.84
2022-12-11T18:43:48.203Z,97395.13
2022-12-11T18:46:19.696Z,97391.31
2022-12-11T18:48:48.121Z,97397.28
2022-12-11T18:51:18.461Z,97403.97
2022-12-11T18:53:46.132Z,97403.53
2022-12-11T18:56:16.438Z,97405.12
2022-12-11T18:58:43.819Z,97417.53
2022-12-11T19:01:18.551Z,97434.19
2022-12-11T19:03:46.116Z,97428.88
2022-12-11T19:06:18.425Z,97431.34
2022-12-11T19:08:46.140Z,97424.75
2022-12-11T19:11:18.475Z,97419.72
2022-12-11T19:13:46.605Z,97426.31
2022-12-11T19:16:18.315Z,97435.69
2022-12-11T19:18:45.900Z,97425.81
2022-12-11T19:21:13.920Z,97421.16
2022-12-11T19:23:41.382Z,97436.66
2022-12-11T19:26:18.347Z,97441.13
2022-12-11T19:28:45.786Z,97445.63
2022-12-11T19:31:15.424Z,97448.50
2022-12-11T19:33:43.719Z,97442.66
2022-12-11T19:36:12.609Z,97444.94
2022-12-11T19:38:41.431Z,97437.50
2022-12-11T19:41:10.835Z,97438.94
2022-12-11T19:43:37.902Z,97439.13
2022-12-11T19:46:06.459Z,97434.59
2022-12-11T19:48:37.369Z,97437.72
2022-12-11T19:51:05.909Z,97434.09
2022-12-11T19:53:33.975Z,97446.22
2022-12-11T19:56:01.037Z,97447.16
2022-12-11T19:58:28.392Z,97433.47
2022-12-11T20:00:56.757Z,97437.56
2022-12-11T20:03:24.700Z,97434.69
2022-12-11T20:05:51.696Z,97447.16
2022-12-11T20:08:43.705Z,97450.78
2022-12-11T20:11:12.837Z,97439.47
2022-12-11T20:13:45.600Z,97445.28
2022-12-11T20:16:13.372Z,97449.00
2022-12-11T20:18:40.664Z,97464.66
2022-12-11T20:21:12.825Z,97441.00
2022-12-11T20:23:41.782Z,97455.37
2022-12-11T20:26:10.692Z,97460.06
2022-12-11T20:28:38.435Z,97455.56
2022-12-11T20:31:08.792Z,97453.09
2022-12-11T20:33:35.971Z,97457.75
2022-12-11T20:36:07.669Z,97447.69
2022-12-11T20:38:35.120Z,97454.59
2022-12-11T20:41:02.125Z,97455.69
2022-12-11T20:43:29.153Z,97442.53
2022-12-11T20:45:56.463Z,97444.34
2022-12-11T20:48:24.225Z,97453.59
2022-12-11T20:50:51.215Z,97449.97
2022-12-11T20:53:18.503Z,97451.72
2022-12-11T20:55:45.568Z,97446.41
2022-12-11T20:58:12.548Z,97451.62
2022-12-11T21:00:40.123Z,97465.50
2022-12-11T21:03:07.184Z,97472.69
2022-12-11T21:05:34.299Z,97482.28
2022-12-11T21:08:01.654Z,97480.38
2022-12-11T21:10:28.672Z,97470.59
2022-12-11T21:12:55.652Z,97475.72
2022-12-11T21:15:22.913Z,97471.22
2022-12-11T21:17:49.945Z,97475.78
2022-12-11T21:20:17.043Z,97479.56
2022-12-11T21:22:44.447Z,97471.97
2022-12-11T21:25:11.794Z,97469.03
2022-12-11T21:27:38.996Z,97478.59
2022-12-11T21:30:06.887Z,97472.53
2022-12-11T21:32:35.266Z,97479.41
2022-12-11T21:35:03.133Z,97483.34
2022-12-11T21:37:30.523Z,97496.84
2022-12-11T21:39:57.943Z,97487.28
2022-12-11T21:42:25.797Z,97485.81
2022-12-11T21:45:37.502Z,97493.81
2022-12-11T21:47:40.751Z,97495.50
2022-12-11T21:50:08.280Z,97496.00
2022-12-11T21:52:37.637Z,97493.81
2022-12-11T21:55:05.642Z,97498.94
2022-12-11T21:57:33.213Z,97516.19
2022-12-11T22:00:00.218Z,97507.31
2022-12-11T22:02:27.322Z,97498.03
2022-12-11T22:04:54.610Z,97496.38
2022-12-11T22:07:21.947Z,97509.66
2022-12-11T22:09:48.918Z,97495.09
2022-12-11T22:12:24.828Z,97494.37
2022-12-11T22:14:52.007Z,97497.50
2022-12-11T22:17:19.385Z,97497.50
2022-12-11T22:19:46.888Z,97485.94
2022-12-11T22:22:14.453Z,97491.81
2022-12-11T22:24:41.741Z,97503.09
2022-12-11T22:27:08.725Z,97497.31
2022-12-11T22:29:35.733Z,97495.31
2022-12-11T22:32:04.108Z,97492.91
2022-12-11T22:34:31.108Z,97489.25
2022-12-11T22:36:58.449Z,97504.91
2022-12-11T22:39:25.738Z,97516.00
2022-12-11T22:41:52.762Z,97516.72
2022-12-11T22:44:21.202Z,97504.81
2022-12-11T22:46:50.397Z,97503.53
2022-12-11T22:49:18.991Z,97509.31
2022-12-11T22:51:46.123Z,97518.66
2022-12-11T22:54:13.413Z,97524.25
2022-12-11T22:56:40.433Z,97536.47
2022-12-11T22:59:07.640Z,97524.03
2022-12-11T23:01:34.963Z,97535.16
2022-12-11T23:04:01.977Z,97532.94
2022-12-11T23:06:28.994Z,97513.75
2022-12-11T23:09:00.242Z,97520.53
2022-12-11T23:11:30.297Z,97523.19
2022-12-11T23:13:57.926Z,97519.50
2022-12-11T23:16:26.572Z,97500.50
2022-12-11T23:18:54.645Z,97497.69
2022-12-11T23:21:23.009Z,97512.94
2022-12-11T23:23:50.179Z,97517.81
2022-12-11T23:26:18.780Z,97523.03
2022-12-11T23:28:47.118Z,97521.91
2022-12-11T23:31:14.855Z,97532.75
2022-12-11T23:33:42.056Z,97518.16
2022-12-11T23:36:09.743Z,97511.47
2022-12-11T23:38:37.388Z,97517.28
2022-12-11T23:41:05.147Z,97514.28
2022-12-11T23:43:34.664Z,97508.34
2022-12-11T23:46:02.708Z,97514.03
2022-12-11T23:48:29.753Z,97506.00
2022-12-11T23:51:01.541Z,97508.19
2022-12-11T23:53:28.814Z,97521.72
2022-12-11T23:55:56.146Z,97521.72
2022-12-11T23:58:23.403Z,97522.66
